Waynesville-St. Robert Regional Forney field
KTBN : now visible

Airfield :











YOU CAN JOIN US ON...

 
LOGIN :

Register | Disclaimer

   EN    FR    IT 

 









Legend :    VFR   Marginal VFR   IFR   Intensive IFR   Very Intensive IFR
Visi :
Ceiling :
>= 8 km
>= 3000ft
5 to 8 km
1000 to 3000 ft
1500m to 5 km
500 to 1000 ft
800 to 1500m
200 to 500 ft
< 800m
< 200 ft
Symbols :   Thunderstorms  Fog  Heavy snow  Heavy precipitations  Wind > 20 kt






- Airport Elevation : 1159 ft
- IATA code : TBN


KTBN - Waynesville-St. Robert Regional Forney field

CURRENT METAR :
  • 250455Z AUTO 16007KT 10SM CLR 28/23 A2990 RMK AO2 SLP113 T02820226

EXPIRED METARs :
  • 250355Z AUTO 15007KT 10SM CLR 29/23 A2990 RMK AO2 SLP113 T02870233
  • 250255Z AUTO 15006KT 10SM CLR 29/23 A2988 RMK AO2 SLP106 T02940233 53002
  • 250155Z AUTO 15006KT 10SM CLR 30/24 A2988 RMK AO2 SLP106 T02950243
  • 250055Z AUTO 15005KT 10SM CLR 32/24 A2988 RMK AO2 SLP107 T03200243
  • 242355Z AUTO 18005KT 10SM CLR 34/23 A2988 RMK AO2 SLP107 T03380234 10355 20335 57012

TAF COR TAF KTBN
Valid from the 24 at 21:00 until the 26 at 03:00 UTC


2421/2603 21006KT 9999 SKC QNH2988INS TX33/2520Z TN25/2511Z LAST NO AMDS AFT 2503 NEXT 2513
KZKC FIR / North America



MET'MAP, your aeronautical weather chart ! - Copyright ORBIFLY December 2007 - Disclaimer

ORBIFLY MET'MAP TEAM :

Programming & Development : Alexandra Zaïnal
Original concept : Baudouin d'Aumeries
Technical & hardware support : Manuel Goepfert
Assistance : Marc-Olivier Méhu




SOURCES & CREDITS :

   NOAA       Earth
Advisory